createdAt,value
2022-12-20T00:01:08.471Z,1.26
2022-12-20T00:03:37.124Z,0.87
2022-12-20T00:06:07.207Z,1.21
2022-12-20T00:08:36.707Z,1.00
2022-12-20T00:11:06.490Z,1.09
2022-12-20T00:13:35.130Z,0.93
2022-12-20T00:16:08.273Z,1.22
2022-12-20T00:18:37.252Z,0.98
2022-12-20T00:21:08.587Z,1.17
2022-12-20T00:23:37.857Z,1.08
2022-12-20T00:26:07.395Z,1.15
2022-12-20T00:28:38.182Z,1.23
2022-12-20T00:31:08.186Z,1.29
2022-12-20T00:33:37.986Z,1.28
2022-12-20T00:36:08.996Z,1.38
2022-12-20T00:38:37.582Z,1.21
2022-12-20T00:41:07.209Z,1.37
2022-12-20T00:43:35.981Z,1.36
2022-12-20T00:46:04.563Z,1.23
2022-12-20T00:48:33.277Z,1.16
2022-12-20T00:51:02.261Z,1.44
2022-12-20T00:53:32.533Z,1.59
2022-12-20T00:56:01.269Z,1.32
2022-12-20T00:58:29.941Z,1.41
2022-12-20T01:00:58.223Z,1.28
2022-12-20T01:03:27.769Z,1.55
2022-12-20T01:05:57.622Z,1.54
2022-12-20T01:08:27.068Z,1.46
2022-12-20T01:11:03.891Z,1.70
2022-12-20T01:13:33.391Z,1.39
2022-12-20T01:16:05.781Z,1.52
2022-12-20T01:18:34.443Z,1.27
2022-12-20T01:21:04.383Z,1.52
2022-12-20T01:23:33.196Z,1.39
2022-12-20T01:26:04.900Z,1.63
2022-12-20T01:28:34.083Z,1.38
2022-12-20T01:31:02.354Z,1.15
2022-12-20T01:33:30.878Z,1.24
2022-12-20T01:36:00.707Z,1.47
2022-12-20T01:38:29.553Z,1.22
2022-12-20T01:40:58.665Z,1.33
2022-12-20T01:43:47.534Z,1.76
2022-12-20T01:46:16.395Z,1.37
2022-12-20T01:48:47.949Z,1.50
2022-12-20T01:51:16.165Z,1.98
2022-12-20T01:53:44.809Z,1.54
2022-12-20T01:56:13.192Z,1.49
2022-12-20T01:58:43.503Z,1.77
2022-12-20T02:01:11.815Z,1.45
2022-12-20T02:03:40.503Z,1.49
2022-12-20T02:06:16.586Z,1.94
2022-12-20T02:08:47.084Z,1.66
2022-12-20T02:11:29.171Z,2.05
2022-12-20T02:14:09.051Z,1.97
2022-12-20T02:16:41.953Z,1.86
2022-12-20T02:19:23.081Z,1.91
2022-12-20T02:21:56.690Z,1.88
2022-12-20T02:24:51.818Z,1.91
2022-12-20T02:27:35.374Z,2.04
2022-12-20T02:30:11.083Z,1.93
2022-12-20T02:32:43.844Z,1.83
2022-12-20T02:35:15.308Z,1.69
2022-12-20T02:37:51.496Z,1.87
2022-12-20T02:40:24.884Z,1.78
2022-12-20T02:42:56.767Z,1.63
2022-12-20T02:45:27.707Z,1.56
2022-12-20T02:48:01.050Z,1.39
2022-12-20T02:50:36.095Z,1.44
2022-12-20T02:53:04.458Z,1.13
2022-12-20T02:55:40.473Z,1.33
2022-12-20T02:58:13.970Z,1.22
2022-12-20T03:00:45.141Z,1.15
2022-12-20T03:03:25.836Z,0.99
2022-12-20T03:05:56.740Z,1.07
2022-12-20T03:08:25.577Z,0.86
2022-12-20T03:10:55.345Z,0.96
2022-12-20T03:13:24.082Z,0.79
2022-12-20T03:15:54.205Z,1.11
2022-12-20T03:18:22.377Z,0.80
2022-12-20T03:20:50.963Z,0.77
2022-12-20T03:23:19.174Z,0.74
2022-12-20T03:25:47.565Z,0.76
2022-12-20T03:28:15.865Z,0.81
2022-12-20T03:30:44.418Z,0.81
2022-12-20T03:33:14.052Z,1.01
2022-12-20T03:35:42.437Z,0.83
2022-12-20T03:38:10.633Z,0.78
2022-12-20T03:40:39.055Z,0.81
2022-12-20T03:43:07.303Z,0.76
2022-12-20T03:45:36.000Z,0.76
2022-12-20T03:48:04.097Z,0.67
2022-12-20T03:50:34.581Z,1.03
2022-12-20T03:53:03.154Z,0.76
2022-12-20T03:55:31.578Z,0.69
2022-12-20T03:57:59.742Z,0.73
2022-12-20T04:00:28.235Z,0.76
2022-12-20T04:02:57.151Z,0.73
2022-12-20T04:05:25.851Z,0.77
2022-12-20T04:07:55.383Z,1.13
2022-12-20T04:10:23.752Z,0.85
2022-12-20T04:12:52.070Z,0.78
2022-12-20T04:15:20.569Z,0.69
2022-12-20T04:17:48.773Z,0.63
2022-12-20T04:20:21.073Z,0.99
2022-12-20T04:22:49.865Z,0.91
2022-12-20T04:25:21.721Z,1.07
2022-12-20T04:27:49.899Z,0.68
2022-12-20T04:30:18.629Z,0.75
2022-12-20T04:32:46.874Z,0.63
2022-12-20T04:35:15.357Z,0.71
2022-12-20T04:37:43.659Z,0.61
2022-12-20T04:40:12.933Z,0.81
2022-12-20T04:42:42.395Z,1.01
2022-12-20T04:45:11.588Z,0.84
2022-12-20T04:47:39.794Z,0.68
2022-12-20T04:50:09.311Z,0.91
2022-12-20T04:52:55.325Z,0.84
2022-12-20T04:55:24.110Z,0.83
2022-12-20T04:57:53.878Z,0.99
2022-12-20T05:00:22.698Z,0.77
2022-12-20T05:02:51.663Z,0.64
2022-12-20T05:05:20.477Z,0.60
2022-12-20T05:07:48.817Z,0.82
2022-12-20T05:10:17.338Z,0.81
2022-12-20T05:12:45.780Z,0.64
2022-12-20T05:15:15.858Z,0.94
2022-12-20T05:17:44.062Z,0.78
2022-12-20T05:20:14.001Z,0.91
2022-12-20T05:22:59.765Z,0.83
2022-12-20T05:25:46.727Z,0.68
2022-12-20T05:28:14.936Z,0.61
2022-12-20T05:30:45.293Z,0.86
2022-12-20T05:33:13.689Z,0.75
2022-12-20T05:35:42.190Z,0.59
2022-12-20T05:38:10.437Z,0.59
2022-12-20T05:40:38.939Z,0.66
2022-12-20T05:43:07.994Z,0.79
2022-12-20T05:45:36.602Z,0.60
2022-12-20T05:48:06.699Z,0.96
2022-12-20T05:50:35.420Z,0.56
2022-12-20T05:53:10.906Z,0.66
2022-12-20T05:55:40.569Z,0.68
2022-12-20T05:58:09.222Z,0.68
2022-12-20T06:00:37.616Z,0.65
2022-12-20T06:03:07.579Z,0.89
2022-12-20T06:05:36.820Z,0.58
2022-12-20T06:08:05.598Z,0.56
2022-12-20T06:10:35.675Z,0.74
2022-12-20T06:13:06.868Z,0.62
2022-12-20T06:15:35.305Z,0.33
2022-12-20T06:18:03.872Z,0.42
2022-12-20T06:20:34.200Z,0.73
2022-12-20T06:23:03.186Z,0.57
2022-12-20T06:25:31.925Z,0.33
2022-12-20T06:28:00.223Z,0.30
2022-12-20T06:30:33.685Z,0.29
2022-12-20T06:33:02.658Z,0.35
2022-12-20T06:35:31.653Z,0.42
2022-12-20T06:38:01.368Z,0.59
2022-12-20T06:40:29.987Z,0.34
2022-12-20T06:42:58.241Z,0.35
2022-12-20T06:45:26.945Z,0.39
2022-12-20T06:47:55.151Z,0.32
2022-12-20T06:50:23.800Z,0.37
2022-12-20T06:52:51.991Z,0.32
2022-12-20T06:55:22.015Z,0.70
2022-12-20T06:57:50.094Z,0.43
2022-12-20T07:00:19.821Z,0.61
2022-12-20T07:02:48.076Z,0.53
2022-12-20T07:05:16.901Z,0.67
2022-12-20T07:07:45.706Z,0.71
2022-12-20T07:10:14.498Z,0.95
2022-12-20T07:12:48.037Z,1.18
2022-12-20T07:15:17.566Z,1.01
2022-12-20T07:17:45.940Z,1.08
2022-12-20T07:20:17.268Z,1.29
2022-12-20T07:22:48.756Z,1.58
2022-12-20T07:25:17.510Z,1.36
2022-12-20T07:27:49.887Z,1.92
2022-12-20T07:30:19.281Z,1.64
2022-12-20T07:32:47.914Z,1.55
2022-12-20T07:35:17.125Z,1.75
2022-12-20T07:37:45.280Z,1.59
2022-12-20T07:40:16.335Z,1.83
2022-12-20T07:42:48.483Z,1.61
2022-12-20T07:45:19.310Z,1.89
2022-12-20T07:47:47.677Z,1.76
2022-12-20T07:50:16.380Z,1.90
2022-12-20T07:52:46.034Z,2.19
2022-12-20T07:55:14.910Z,1.95
2022-12-20T07:57:45.203Z,2.35
2022-12-20T08:00:15.381Z,2.32
2022-12-20T08:02:54.667Z,2.81
2022-12-20T08:05:24.593Z,2.63
2022-12-20T08:07:59.083Z,3.02
2022-12-20T08:10:28.866Z,2.85
2022-12-20T08:12:57.531Z,2.95
2022-12-20T08:15:26.334Z,2.93
2022-12-20T08:17:56.036Z,3.20
2022-12-20T08:20:24.701Z,3.05
2022-12-20T08:22:52.983Z,3.22
2022-12-20T08:25:21.714Z,3.52
2022-12-20T08:27:49.987Z,3.58
2022-12-20T08:30:18.841Z,3.50
2022-12-20T08:32:47.147Z,3.31
2022-12-20T08:35:17.133Z,3.86
2022-12-20T08:37:45.391Z,3.69
2022-12-20T08:40:14.817Z,3.97
2022-12-20T08:42:43.093Z,4.34
2022-12-20T08:45:12.551Z,5.20
2022-12-20T08:47:41.356Z,5.21
2022-12-20T08:50:10.540Z,5.76
2022-12-20T08:52:40.459Z,6.62
2022-12-20T08:55:12.975Z,8.01
2022-12-20T08:57:41.735Z,9.50
2022-12-20T09:00:11.583Z,10.52
2022-12-20T09:02:41.565Z,10.93
2022-12-20T09:05:10.873Z,11.27
2022-12-20T09:07:40.534Z,10.95
2022-12-20T09:10:10.625Z,10.30
2022-12-20T09:12:39.912Z,9.56
2022-12-20T09:15:10.501Z,9.31
2022-12-20T09:17:38.825Z,8.36
2022-12-20T09:20:08.611Z,7.75
2022-12-20T09:22:37.025Z,7.08
2022-12-20T09:25:08.263Z,6.98
2022-12-20T09:27:36.699Z,6.28
2022-12-20T09:30:05.975Z,5.95
2022-12-20T09:32:34.465Z,5.60
2022-12-20T09:35:03.421Z,5.42
2022-12-20T09:37:32.514Z,5.24
2022-12-20T09:40:01.238Z,5.08
2022-12-20T09:42:31.574Z,5.22
2022-12-20T09:45:03.746Z,5.18
2022-12-20T09:47:34.273Z,5.24
2022-12-20T09:50:04.077Z,5.30
2022-12-20T09:52:48.859Z,5.99
2022-12-20T09:55:25.487Z,6.36
2022-12-20T09:58:04.794Z,6.91
2022-12-20T10:00:36.960Z,7.03
2022-12-20T10:03:10.339Z,7.44
2022-12-20T10:05:46.079Z,7.89
2022-12-20T10:08:25.913Z,7.92
2022-12-20T10:10:56.770Z,7.69
2022-12-20T10:13:39.274Z,8.11
2022-12-20T10:16:19.183Z,8.30
2022-12-20T10:18:57.027Z,7.74
2022-12-20T10:21:34.053Z,7.46
2022-12-20T10:24:04.086Z,6.86
2022-12-20T10:26:34.244Z,6.60
2022-12-20T10:29:04.016Z,6.32
2022-12-20T10:31:32.639Z,5.55
2022-12-20T10:34:00.971Z,5.15
2022-12-20T10:36:31.317Z,5.42
2022-12-20T10:39:01.047Z,5.26
2022-12-20T10:41:31.616Z,5.36
2022-12-20T10:44:03.707Z,5.16
2022-12-20T10:46:40.957Z,5.27
2022-12-20T10:49:31.282Z,5.30
2022-12-20T10:52:02.914Z,5.02
2022-12-20T10:54:36.126Z,4.95
2022-12-20T10:57:14.979Z,4.85
2022-12-20T10:59:47.411Z,5.01
2022-12-20T11:02:31.792Z,5.16
2022-12-20T11:05:20.399Z,5.18
2022-12-20T11:08:33.470Z,4.99
2022-12-20T11:10:43.408Z,4.76
2022-12-20T11:13:22.142Z,5.35
2022-12-20T11:15:55.191Z,5.18
2022-12-20T11:18:30.108Z,5.39
2022-12-20T11:21:16.480Z,5.42
2022-12-20T11:23:50.209Z,5.60
2022-12-20T11:26:30.596Z,6.66
2022-12-20T11:29:09.533Z,7.98
2022-12-20T11:31:49.161Z,9.70
2022-12-20T11:34:30.363Z,11.20
2022-12-20T11:37:06.149Z,11.57
2022-12-20T11:39:41.657Z,11.36
2022-12-20T11:42:16.219Z,12.14
2022-12-20T11:45:01.973Z,13.19
2022-12-20T11:47:52.031Z,12.27
2022-12-20T11:50:44.327Z,10.60
2022-12-20T11:53:19.500Z,9.75
2022-12-20T11:55:51.026Z,9.10
2022-12-20T11:58:22.073Z,8.46
2022-12-20T12:00:52.989Z,8.40
2022-12-20T12:03:28.264Z,7.41
2022-12-20T12:06:00.851Z,6.72
2022-12-20T12:08:37.188Z,6.49
2022-12-20T12:11:20.098Z,6.20
2022-12-20T12:13:59.113Z,5.75
2022-12-20T12:16:30.648Z,5.71
2022-12-20T12:19:01.157Z,5.63
2022-12-20T12:21:33.929Z,5.54
2022-12-20T12:24:08.220Z,5.49
2022-12-20T12:26:39.575Z,5.32
2022-12-20T12:29:12.721Z,5.29
2022-12-20T12:31:45.545Z,5.34
2022-12-20T12:34:28.830Z,5.37
2022-12-20T12:37:37.337Z,5.49
2022-12-20T12:40:52.023Z,5.44
2022-12-20T12:43:47.241Z,5.25
2022-12-20T12:46:18.741Z,5.00
2022-12-20T12:48:52.820Z,4.97
2022-12-20T12:51:28.092Z,4.83
2022-12-20T12:54:05.701Z,4.76
2022-12-20T12:56:45.465Z,4.69
2022-12-20T12:59:28.802Z,4.85
2022-12-20T13:02:18.717Z,4.39
2022-12-20T13:04:55.829Z,4.65
2022-12-20T13:07:32.088Z,4.56
2022-12-20T13:10:01.416Z,4.27
2022-12-20T13:12:59.937Z,4.91
2022-12-20T13:15:51.425Z,5.03
2022-12-20T13:18:29.684Z,4.82
2022-12-20T13:21:35.423Z,4.92
2022-12-20T13:24:42.408Z,4.85
2022-12-20T13:27:34.518Z,4.66
2022-12-20T13:30:27.575Z,4.37
2022-12-20T13:33:27.241Z,4.19
2022-12-20T13:36:28.993Z,4.11
2022-12-20T13:38:59.740Z,3.73
2022-12-20T13:41:42.897Z,3.95
2022-12-20T13:44:30.546Z,4.07
2022-12-20T13:47:03.229Z,3.84
2022-12-20T13:49:36.351Z,3.92
2022-12-20T13:52:14.132Z,3.91
2022-12-20T13:54:44.031Z,3.64
2022-12-20T13:57:17.214Z,3.70
2022-12-20T13:59:49.379Z,3.68
2022-12-20T14:02:22.069Z,3.57
2022-12-20T14:04:59.356Z,3.59
2022-12-20T14:07:29.228Z,3.29
2022-12-20T14:09:59.932Z,3.21
2022-12-20T14:12:36.183Z,3.10
2022-12-20T14:15:22.668Z,3.52
2022-12-20T14:17:51.097Z,2.98
2022-12-20T14:20:23.308Z,3.22
2022-12-20T14:23:02.499Z,3.17
2022-12-20T14:25:36.571Z,3.09
2022-12-20T14:28:05.151Z,2.83
2022-12-20T14:30:37.792Z,3.10
2022-12-20T14:33:06.122Z,2.82
2022-12-20T14:35:34.776Z,2.75
2022-12-20T14:38:04.418Z,2.86
2022-12-20T14:40:33.691Z,2.71
2022-12-20T14:43:15.958Z,3.18
2022-12-20T14:45:46.110Z,2.91
2022-12-20T14:48:17.737Z,2.93
2022-12-20T14:50:53.027Z,2.99
2022-12-20T14:53:24.897Z,2.81
2022-12-20T14:55:54.012Z,2.59
2022-12-20T14:58:27.258Z,2.86
2022-12-20T15:01:02.259Z,2.79
2022-12-20T15:03:30.819Z,2.51
2022-12-20T15:06:00.451Z,2.54
2022-12-20T15:08:31.162Z,2.64
2022-12-20T15:11:03.751Z,2.73
2022-12-20T15:13:34.326Z,2.72
2022-12-20T15:16:06.434Z,2.88
2022-12-20T15:18:34.680Z,2.40
2022-12-20T15:21:06.654Z,2.75
2022-12-20T15:23:35.588Z,2.57
2022-12-20T15:26:04.351Z,2.47
2022-12-20T15:28:32.647Z,2.53
2022-12-20T15:31:01.317Z,2.45
2022-12-20T15:33:33.446Z,2.87
2022-12-20T15:36:01.988Z,2.46
2022-12-20T15:38:54.686Z,2.52
2022-12-20T15:41:21.969Z,2.96
2022-12-20T15:43:51.182Z,3.53
2022-12-20T15:46:19.948Z,2.73
2022-12-20T15:48:49.889Z,2.90
2022-12-20T15:51:20.483Z,2.90
2022-12-20T15:53:48.764Z,2.71
2022-12-20T15:56:21.800Z,2.97
2022-12-20T15:58:53.024Z,2.80
2022-12-20T16:01:23.119Z,2.77
2022-12-20T16:03:53.077Z,2.82
2022-12-20T16:06:23.286Z,2.57
2022-12-20T16:08:51.613Z,2.45
2022-12-20T16:11:22.681Z,2.54
2022-12-20T16:13:51.714Z,2.46
2022-12-20T16:16:21.419Z,2.37
2022-12-20T16:18:50.233Z,2.30
2022-12-20T16:21:24.016Z,2.51
2022-12-20T16:23:52.882Z,2.01
2022-12-20T16:26:23.995Z,2.21
2022-12-20T16:28:53.539Z,2.09
2022-12-20T16:31:25.525Z,2.21
2022-12-20T16:33:54.829Z,1.86
2022-12-20T16:36:25.526Z,2.04
2022-12-20T16:38:54.295Z,1.98
2022-12-20T16:41:25.663Z,2.01
2022-12-20T16:43:55.524Z,2.10
2022-12-20T16:46:26.410Z,2.00
2022-12-20T16:48:55.279Z,1.87
2022-12-20T16:51:26.389Z,2.04
2022-12-20T16:54:18.172Z,1.80
2022-12-20T16:56:45.109Z,1.80
2022-12-20T16:59:22.446Z,1.70
2022-12-20T17:01:53.383Z,1.98
2022-12-20T17:04:22.584Z,1.72
2022-12-20T17:06:52.744Z,1.82
2022-12-20T17:12:12.570Z,1.98
2022-12-20T17:14:40.699Z,1.72
2022-12-20T17:17:09.326Z,1.82
2022-12-20T17:19:37.649Z,1.85
2022-12-20T17:24:53.773Z,1.99
2022-12-20T17:27:22.364Z,1.88
2022-12-20T17:29:52.322Z,1.96
2022-12-20T17:32:22.537Z,2.08
2022-12-20T17:34:50.962Z,1.98
2022-12-20T17:37:21.588Z,2.19
2022-12-20T17:39:50.040Z,1.96
2022-12-20T17:42:18.788Z,1.82
2022-12-20T17:44:47.351Z,1.79
2022-12-20T17:47:17.387Z,1.87
2022-12-20T17:49:45.795Z,1.85
2022-12-20T17:52:15.608Z,1.86
2022-12-20T17:54:45.378Z,2.02
2022-12-20T17:57:15.651Z,1.92
2022-12-20T17:59:44.559Z,1.94
2022-12-20T18:02:23.400Z,2.23
2022-12-20T18:04:52.983Z,1.89
2022-12-20T18:07:21.644Z,1.76
2022-12-20T18:09:52.858Z,1.96
2022-12-20T18:12:21.577Z,1.72
2022-12-20T18:14:50.800Z,1.87
2022-12-20T18:17:19.345Z,1.78
2022-12-20T18:19:47.675Z,1.83
2022-12-20T18:22:17.062Z,1.94
2022-12-20T18:24:45.596Z,1.83
2022-12-20T18:27:17.879Z,2.10
2022-12-20T18:29:46.077Z,1.70
2022-12-20T18:32:14.805Z,1.75
2022-12-20T18:34:44.079Z,1.77
2022-12-20T18:37:12.725Z,1.70
2022-12-20T18:39:41.000Z,1.76
2022-12-20T18:42:09.632Z,1.75
2022-12-20T18:44:39.294Z,1.98
2022-12-20T18:47:07.839Z,1.70
2022-12-20T18:49:37.568Z,1.77
2022-12-20T18:52:06.568Z,1.85
2022-12-20T18:54:34.972Z,1.79
2022-12-20T18:57:06.010Z,1.73
2022-12-20T18:59:34.946Z,1.80
2022-12-20T19:02:05.256Z,1.74
2022-12-20T19:04:33.720Z,1.50
2022-12-20T19:07:02.259Z,1.37
2022-12-20T19:09:30.557Z,1.34
2022-12-20T19:11:59.147Z,1.39
2022-12-20T19:14:27.382Z,1.32
2022-12-20T19:16:56.021Z,1.25
2022-12-20T19:19:26.583Z,1.53
2022-12-20T19:21:55.203Z,1.23
2022-12-20T19:24:23.551Z,1.21
2022-12-20T19:26:52.188Z,1.20
2022-12-20T19:29:20.381Z,1.15
2022-12-20T19:31:49.097Z,1.02
2022-12-20T19:34:17.392Z,1.06
2022-12-20T19:36:48.530Z,1.32
2022-12-20T19:39:20.198Z,1.15
2022-12-20T19:44:37.612Z,0.75
2022-12-20T19:47:06.397Z,0.75
2022-12-20T19:49:36.792Z,1.01
2022-12-20T19:52:07.539Z,1.31
2022-12-20T19:54:36.349Z,0.87
2022-12-20T19:57:05.579Z,0.88
2022-12-20T19:59:34.047Z,0.93
2022-12-20T20:02:03.744Z,1.03
2022-12-20T20:04:33.025Z,0.93
2022-12-20T20:07:02.487Z,0.99
2022-12-20T20:09:32.053Z,1.23
2022-12-20T20:12:00.891Z,0.93
2022-12-20T20:14:29.577Z,0.97
2022-12-20T20:16:58.172Z,0.99
2022-12-20T20:19:26.719Z,1.02
2022-12-20T20:21:55.521Z,0.94
2022-12-20T20:24:23.854Z,0.89
2022-12-20T20:26:53.941Z,1.09
2022-12-20T20:29:22.379Z,0.96
2022-12-20T20:31:51.054Z,1.00
2022-12-20T20:34:19.302Z,0.97
2022-12-20T20:36:47.878Z,0.95
2022-12-20T20:39:16.267Z,0.96
2022-12-20T20:41:44.934Z,1.07
2022-12-20T20:44:14.716Z,1.41
2022-12-20T20:46:43.408Z,1.02
2022-12-20T20:49:11.868Z,1.04
2022-12-20T20:51:40.506Z,1.10
2022-12-20T20:54:08.729Z,1.12
2022-12-20T20:56:37.430Z,1.25
2022-12-20T20:59:10.582Z,1.10
2022-12-20T21:01:45.567Z,1.42
2022-12-20T21:04:14.128Z,1.11
2022-12-20T21:06:42.979Z,1.15
2022-12-20T21:09:11.597Z,1.02
2022-12-20T21:11:40.696Z,0.99
2022-12-20T21:14:09.259Z,0.95
2022-12-20T21:16:37.841Z,0.92
2022-12-20T21:19:07.628Z,1.38
2022-12-20T21:21:36.248Z,1.07
2022-12-20T21:24:04.645Z,1.02
2022-12-20T21:26:33.203Z,1.12
2022-12-20T21:29:01.914Z,1.20
2022-12-20T21:31:30.917Z,1.15
2022-12-20T21:33:59.312Z,1.13
2022-12-20T21:36:29.327Z,1.61
2022-12-20T21:38:58.948Z,1.63
2022-12-20T21:41:28.988Z,1.66
2022-12-20T21:43:58.246Z,1.58
2022-12-20T21:46:28.318Z,1.64
2022-12-20T21:48:56.792Z,1.47
2022-12-20T21:51:26.437Z,1.63
2022-12-20T21:53:57.661Z,1.82
2022-12-20T21:56:27.391Z,1.69
2022-12-20T21:58:56.066Z,1.70
2022-12-20T22:01:25.976Z,1.72
2022-12-20T22:03:56.109Z,1.64
2022-12-20T22:06:25.614Z,1.59
2022-12-20T22:08:55.271Z,1.80
2022-12-20T22:11:23.865Z,1.73
2022-12-20T22:13:55.777Z,2.10
2022-12-20T22:16:26.464Z,2.09
2022-12-20T22:18:56.871Z,2.12
2022-12-20T22:21:27.052Z,2.10
2022-12-20T22:23:57.850Z,2.28
2022-12-20T22:26:27.741Z,2.25
2022-12-20T22:28:57.489Z,2.38
2022-12-20T22:31:26.575Z,2.19
2022-12-20T22:33:55.740Z,2.18
2022-12-20T22:36:24.360Z,2.02
2022-12-20T22:38:52.854Z,2.16
2022-12-20T22:41:24.246Z,2.46
2022-12-20T22:43:53.024Z,2.12
2022-12-20T22:46:30.557Z,2.06
2022-12-20T22:49:02.514Z,2.09
2022-12-20T22:51:33.509Z,2.08
2022-12-20T22:54:02.038Z,1.84
2022-12-20T22:56:31.979Z,2.27
2022-12-20T22:59:00.239Z,1.77
2022-12-20T23:01:32.246Z,1.89
2022-12-20T23:04:00.741Z,1.90
2022-12-20T23:06:29.293Z,1.89
2022-12-20T23:08:57.573Z,1.83
2022-12-20T23:11:46.356Z,2.11
2022-12-20T23:14:35.295Z,2.27
2022-12-20T23:17:04.540Z,1.97
2022-12-20T23:19:53.739Z,1.77
2022-12-20T23:22:40.914Z,1.93
2022-12-20T23:25:11.946Z,1.92
2022-12-20T23:27:40.462Z,2.39
2022-12-20T23:30:12.125Z,1.93
2022-12-20T23:32:44.768Z,1.52
2022-12-20T23:35:13.578Z,1.47
2022-12-20T23:37:42.170Z,1.42
2022-12-20T23:40:12.005Z,1.64
2022-12-20T23:42:41.086Z,1.39
2022-12-20T23:45:12.093Z,1.78
2022-12-20T23:47:40.594Z,1.36
2022-12-20T23:50:09.844Z,1.55
2022-12-20T23:52:38.432Z,1.38
2022-12-20T23:55:07.555Z,1.48
2022-12-20T23:57:36.113Z,1.17
